Time;durP1;ratioP1;P1;durP2;ratioP2;P2;SDS_P1;SDS_P2;PMS_P1;PMS_P2;Temp;Humidity;BMP_temperature;BMP_pressure;BME280_temperature;BME280_humidity;BME280_pressure;Samples;Min_cycle;Max_cycle;Signal;HPM_P1;HPM_P2
2023/08/07 00:01:44;;;;;;;;;;;;;;;25.17;63.46;96275.94;592027;237;67330;-72
2023/08/07 00:04:12;;;;;;;;;;;;;;;25.17;63.38;96272.46;592107;239;66884;-72
2023/08/07 00:06:39;;;;;;;;;;;;;;;25.16;63.68;96274.36;592020;239;62511;-72
2023/08/07 00:09:07;;;;;;;;;;;;;;;25.17;63.51;96272.46;595774;238;64870;-72
2023/08/07 00:11:34;;;;;;;;;;;;;;;25.17;63.89;96275.94;596635;238;64793;-72
2023/08/07 00:14:02;;;;;;;;;;;;;;;25.16;63.44;96276.27;596617;238;62546;-73
2023/08/07 00:16:29;;;;;;;;;;;;;;;25.16;63.52;96274.36;596700;238;67183;-72
2023/08/07 00:18:57;;;;;;;;;;;;;;;25.16;63.42;96281.64;596631;238;66920;-72
2023/08/07 00:21:25;;;;;;;;;;;;;;;25.15;63.24;96278.14;596616;238;62303;-72
2023/08/07 00:23:54;;;;;;;;;;;;;;;25.16;63.38;96276.27;596642;238;64927;-72
2023/08/07 00:26:21;;;;;;;;;;;;;;;25.15;63.34;96272.77;596619;238;64719;-72
2023/08/07 00:28:49;;;;;;;;;;;;;;;25.15;63.61;96272.77;596634;238;62532;-72
2023/08/07 00:31:16;;;;;;;;;;;;;;;25.15;63.37;96272.77;596671;238;67295;-72
2023/08/07 00:33:44;;;;;;;;;;;;;;;25.15;63.00;96272.77;596637;238;66876;-72
2023/08/07 00:36:11;;;;;;;;;;;;;;;25.14;63.13;96265.78;596628;238;64572;-72
2023/08/07 00:38:39;;;;;;;;;;;;;;;25.13;62.97;96272.28;596613;238;67399;-72
2023/08/07 00:41:07;;;;;;;;;;;;;;;25.13;63.33;96266.91;596650;238;66639;-72
2023/08/07 00:43:35;;;;;;;;;;;;;;;25.13;63.03;96272.28;596620;238;63523;-73
2023/08/07 00:46:03;;;;;;;;;;;;;;;25.13;63.22;96274.19;596658;238;67253;-72
2023/08/07 00:48:31;;;;;;;;;;;;;;;25.13;63.04;96271.50;596634;238;68038;-72
2023/08/07 00:50:59;;;;;;;;;;;;;;;25.12;63.05;96267.20;596640;238;64671;-72
2023/08/07 00:53:26;;;;;;;;;;;;;;;25.13;63.18;96274.19;596608;238;67080;-72
2023/08/07 00:55:54;;;;;;;;;;;;;;;25.13;63.26;96268.80;596628;238;66839;-73
2023/08/07 00:58:22;;;;;;;;;;;;;;;25.13;63.34;96283.03;596682;238;64573;-72
2023/08/07 01:00:49;;;;;;;;;;;;;;;25.12;63.05;96270.68;596637;238;64933;-73
2023/08/07 01:03:17;;;;;;;;;;;;;;;25.12;62.96;96288.72;596629;238;64821;-72
2023/08/07 01:05:45;;;;;;;;;;;;;;;25.12;62.78;96291.41;596649;238;64595;-73
2023/08/07 01:08:12;;;;;;;;;;;;;;;25.11;62.91;96292.52;594486;238;67718;-72
2023/08/07 01:10:44;;;;;;;;;;;;;;;25.10;62.91;96296.30;592080;239;67062;-72
2023/08/07 01:13:16;;;;;;;;;;;;;;;25.10;62.83;96302.48;591864;239;64578;-73
2023/08/07 01:15:44;;;;;;;;;;;;;;;25.10;63.12;96307.86;591610;239;67926;-74
2023/08/07 01:18:12;;;;;;;;;;;;;;;25.09;62.63;96311.64;592043;239;66909;-71
2023/08/07 01:20:40;;;;;;;;;;;;;;;25.09;62.81;96308.95;592014;239;65807;-72
2023/08/07 01:23:07;;;;;;;;;;;;;;;25.09;62.74;96321.61;592034;239;64919;-72
2023/08/07 01:25:38;;;;;;;;;;;;;;;25.09;62.67;96321.61;592064;239;65724;-72
2023/08/07 01:28:09;;;;;;;;;;;;;;;25.08;62.75;96320.03;592010;239;62460;-73
2023/08/07 01:30:39;;;;;;;;;;;;;;;25.08;62.68;96322.73;591893;239;67041;-73
2023/08/07 01:33:24;;;;;;;;;;;;;;;25.08;62.60;96325.41;592037;237;66731;-73
2023/08/07 01:35:54;;;;;;;;;;;;;;;25.08;62.73;96326.20;592068;239;65406;-72
2023/08/07 01:38:23;;;;;;;;;;;;;;;25.07;62.57;96323.81;592041;239;67624;-72
2023/08/07 01:40:52;;;;;;;;;;;;;;;25.07;62.57;96337.25;592100;239;64684;-73
2023/08/07 01:43:20;;;;;;;;;;;;;;;25.06;62.73;96333.78;592042;239;64396;-72
2023/08/07 01:45:47;;;;;;;;;;;;;;;25.06;62.73;96332.99;592037;238;64943;-73
2023/08/07 01:48:15;;;;;;;;;;;;;;;25.06;62.64;96343.75;592042;239;67240;-72
2023/08/07 01:50:42;;;;;;;;;;;;;;;25.06;62.63;96352.59;592067;239;62616;-72
2023/08/07 01:53:10;;;;;;;;;;;;;;;25.06;62.58;96357.19;592111;239;67086;-72
2023/08/07 01:55:39;;;;;;;;;;;;;;;25.05;62.47;96355.62;592076;239;67077;-72
2023/08/07 01:58:06;;;;;;;;;;;;;;;25.04;62.60;96362.86;592028;239;64565;-73
2023/08/07 02:00:34;;;;;;;;;;;;;;;25.03;62.30;96362.08;592042;239;67294;-73
2023/08/07 02:03:01;;;;;;;;;;;;;;;25.04;62.55;96360.17;592014;239;66990;-72
2023/08/07 02:05:28;;;;;;;;;;;;;;;25.03;62.82;96361.30;592104;239;65808;-73
2023/08/07 02:07:56;;;;;;;;;;;;;;;25.02;62.27;96371.26;593516;238;67226;-72
2023/08/07 02:10:24;;;;;;;;;;;;;;;25.03;62.19;96372.05;596678;238;67080;-73
2023/08/07 02:12:52;;;;;;;;;;;;;;;25.04;62.30;96378.99;596616;238;64816;-73
2023/08/07 02:15:20;;;;;;;;;;;;;;;25.03;62.47;96372.05;596633;238;64842;-73
2023/08/07 02:17:49;;;;;;;;;;;;;;;25.03;62.66;96380.89;596671;238;45015;-73
2023/08/07 02:20:16;;;;;;;;;;;;;;;25.02;62.40;96376.63;596664;238;62533;-73
2023/08/07 02:22:45;;;;;;;;;;;;;;;25.03;62.70;96383.58;596658;238;67302;-73
2023/08/07 02:25:12;;;;;;;;;;;;;;;25.03;62.70;96378.20;596590;238;64843;-74
2023/08/07 02:27:40;;;;;;;;;;;;;;;25.02;62.23;96387.39;596628;238;63334;-73
2023/08/07 02:30:07;;;;;;;;;;;;;;;25.03;62.26;96393.55;596687;238;67277;-73
2023/08/07 02:32:35;;;;;;;;;;;;;;;25.02;62.02;96398.14;596646;238;66889;-73
2023/08/07 02:35:02;;;;;;;;;;;;;;;25.02;62.38;96397.36;596654;238;64685;-73
2023/08/07 02:37:30;;;;;;;;;;;;;;;25.00;61.76;96397.66;596649;238;64994;-73
2023/08/07 02:39:59;;;;;;;;;;;;;;;25.02;61.99;96397.36;596568;238;67431;-73
2023/08/07 02:42:26;;;;;;;;;;;;;;;25.01;62.26;96385.78;596636;238;64745;-74
2023/08/07 02:44:53;;;;;;;;;;;;;;;25.01;62.16;96385.78;596696;238;68075;-73
2023/08/07 02:47:21;;;;;;;;;;;;;;;25.01;62.43;96382.31;596655;238;65004;-73
2023/08/07 02:49:48;;;;;;;;;;;;;;;25.01;62.12;96385.78;596638;238;66027;-73
2023/08/07 02:52:16;;;;;;;;;;;;;;;25.01;62.13;96385.00;596610;238;68007;-73
2023/08/07 02:54:43;;;;;;;;;;;;;;;25.01;62.05;96390.38;596632;238;67056;-73
2023/08/07 02:57:11;;;;;;;;;;;;;;;25.01;62.17;96390.38;596707;238;64720;-73
2023/08/07 02:59:38;;;;;;;;;;;;;;;25.00;61.98;96399.55;596640;238;67055;-73
2023/08/07 03:02:06;;;;;;;;;;;;;;;24.99;62.10;96396.08;596652;238;67100;-73
2023/08/07 03:04:33;;;;;;;;;;;;;;;24.99;62.04;96397.95;596670;238;64560;-73
2023/08/07 03:07:01;;;;;;;;;;;;;;;24.99;62.41;96406.83;596583;238;65039;-74
2023/08/07 03:09:28;;;;;;;;;;;;;;;24.98;62.31;96405.23;592206;238;64603;-73
2023/08/07 03:11:56;;;;;;;;;;;;;;;24.97;61.88;96411.72;592036;239;64456;-73
2023/08/07 03:14:23;;;;;;;;;;;;;;;24.98;62.10;96418.67;592056;239;64865;-73
2023/08/07 03:16:51;;;;;;;;;;;;;;;24.98;61.93;96417.88;592025;239;67401;-73
2023/08/07 03:19:21;;;;;;;;;;;;;;;24.98;61.75;96421.36;592014;239;64618;-73
2023/08/07 03:21:48;;;;;;;;;;;;;;;24.98;62.31;96420.57;585810;239;67141;-73
2023/08/07 03:24:15;;;;;;;;;;;;;;;24.98;62.23;96428.63;585452;240;66872;-73
2023/08/07 03:26:44;;;;;;;;;;;;;;;24.96;61.92;96431.65;585672;242;62590;-73
2023/08/07 03:29:13;;;;;;;;;;;;;;;24.96;61.86;96437.03;586161;239;67258;-73
2023/08/07 03:31:41;;;;;;;;;;;;;;;24.96;61.65;96442.41;588674;239;64589;-72
2023/08/07 03:34:08;;;;;;;;;;;;;;;24.96;62.07;96449.65;591990;239;62451;-73
2023/08/07 03:36:36;;;;;;;;;;;;;;;24.96;62.43;96452.34;591479;239;64124;-73
2023/08/07 03:39:03;;;;;;;;;;;;;;;24.96;62.22;96457.72;591525;239;66691;-72
2023/08/07 03:41:31;;;;;;;;;;;;;;;24.95;62.47;96456.92;591476;239;62464;-72
2023/08/07 03:43:58;;;;;;;;;;;;;;;24.94;61.85;96447.29;591460;239;64897;-73
2023/08/07 03:46:26;;;;;;;;;;;;;;;24.95;61.67;96453.45;591526;239;64901;-73
2023/08/07 03:48:53;;;;;;;;;;;;;;;24.94;61.69;96452.66;591296;239;65780;-73
2023/08/07 03:51:21;;;;;;;;;;;;;;;24.94;61.42;96455.35;592033;239;65438;-73
2023/08/07 03:53:50;;;;;;;;;;;;;;;24.94;61.72;96443.81;592021;239;67179;-73
2023/08/07 03:56:18;;;;;;;;;;;;;;;24.94;61.90;96455.35;592034;239;64585;-72
2023/08/07 03:58:45;;;;;;;;;;;;;;;24.93;61.76;96453.75;592039;239;64870;-72
2023/08/07 04:01:13;;;;;;;;;;;;;;;24.93;61.97;96452.96;592072;239;66781;-72
2023/08/07 04:03:40;;;;;;;;;;;;;;;24.93;62.17;96464.50;592034;237;62649;-73
2023/08/07 04:06:10;;;;;;;;;;;;;;;24.93;62.59;96466.40;592020;239;67331;-72
2023/08/07 04:08:37;;;;;;;;;;;;;;;24.91;61.92;96469.41;594843;238;67098;-72
2023/08/07 04:11:05;;;;;;;;;;;;;;;24.91;62.37;96461.35;596626;238;64602;-72
2023/08/07 04:13:34;;;;;;;;;;;;;;;24.90;61.40;96451.69;596647;238;67702;-73
2023/08/07 04:16:04;;;;;;;;;;;;;;;24.90;61.71;96448.99;596641;238;67496;-72
2023/08/07 04:18:31;;;;;;;;;;;;;;;24.90;62.02;96443.63;596638;238;64609;-73
2023/08/07 04:20:59;;;;;;;;;;;;;;;24.89;61.89;96444.73;596623;238;67386;-72
2023/08/07 04:23:27;;;;;;;;;;;;;;;24.90;61.63;96442.83;596660;238;66649;-72
2023/08/07 04:25:54;;;;;;;;;;;;;;;24.90;62.60;96456.27;596666;238;64599;-72
2023/08/07 04:28:22;;;;;;;;;;;;;;;24.88;60.99;96448.53;596594;238;67191;-73
2023/08/07 04:30:53;;;;;;;;;;;;;;;24.89;61.03;96457.38;596600;238;67403;-72
2023/08/07 04:33:21;;;;;;;;;;;;;;;24.90;62.30;96459.75;596635;238;62764;-72
2023/08/07 04:35:49;;;;;;;;;;;;;;;24.89;62.17;96463.55;596608;238;65010;-72
2023/08/07 04:38:17;;;;;;;;;;;;;;;24.89;61.84;96468.92;596679;238;67000;-72
2023/08/07 04:40:46;;;;;;;;;;;;;;;24.88;62.44;96470.03;596619;238;64619;-73
2023/08/07 04:43:14;;;;;;;;;;;;;;;24.86;61.93;96466.86;596356;238;67162;-73
2023/08/07 04:45:42;;;;;;;;;;;;;;;24.87;62.15;96470.33;596634;238;66952;-73
2023/08/07 04:48:09;;;;;;;;;;;;;;;24.87;61.81;96473.80;596642;238;64603;-73
2023/08/07 04:50:37;;;;;;;;;;;;;;;24.87;62.26;96471.13;596631;238;66868;-73
2023/08/07 04:53:08;;;;;;;;;;;;;;;24.86;62.32;96466.07;596652;238;64920;-73
2023/08/07 04:55:36;;;;;;;;;;;;;;;24.85;61.80;96473.31;596615;238;66507;-71
2023/08/07 04:58:03;;;;;;;;;;;;;;;24.85;62.28;96480.59;596615;238;67422;-71
2023/08/07 05:00:30;;;;;;;;;;;;;;;24.84;62.10;96482.48;596633;238;66870;-71
2023/08/07 05:02:58;;;;;;;;;;;;;;;24.84;61.36;96484.39;596619;238;64633;-71
2023/08/07 05:05:25;;;;;;;;;;;;;;;24.83;61.45;96486.29;596721;238;65078;-71
2023/08/07 05:07:54;;;;;;;;;;;;;;;24.83;61.73;96483.60;595122;238;64738;-71
2023/08/07 05:10:22;;;;;;;;;;;;;;;24.82;61.82;96476.62;592056;239;64580;-72
2023/08/07 05:12:55;;;;;;;;;;;;;;;24.82;61.51;96484.69;592063;239;67090;-72
2023/08/07 05:15:18;;;;;;;;;;;;;;;24.83;61.54;96482.78;591806;239;66647;-72
2023/08/07 05:17:46;;;;;;;;;;;;;;;24.82;61.09;96479.31;591984;239;64584;-72
2023/08/07 05:20:13;;;;;;;;;;;;;;;24.82;61.55;96479.31;592001;239;67090;-72
2023/08/07 05:22:41;;;;;;;;;;;;;;;24.82;61.71;96484.69;592055;239;66990;-72
2023/08/07 05:25:09;;;;;;;;;;;;;;;24.83;61.43;96501.59;592043;239;64598;-72
2023/08/07 05:27:36;;;;;;;;;;;;;;;24.81;61.45;96493.86;592069;239;67310;-72
2023/08/07 05:30:04;;;;;;;;;;;;;;;24.81;61.70;96494.65;591795;239;66874;-72
2023/08/07 05:32:32;;;;;;;;;;;;;;;24.81;61.58;96491.17;591715;240;64571;-72
2023/08/07 05:35:00;;;;;;;;;;;;;;;24.80;61.26;96492.28;591603;240;64894;-72
2023/08/07 05:37:29;;;;;;;;;;;;;;;24.80;60.63;96501.14;591589;240;64669;-66
2023/08/07 05:39:57;;;;;;;;;;;;;;;24.81;61.55;96491.17;591599;240;64757;-67
2023/08/07 05:42:24;;;;;;;;;;;;;;;24.80;61.22;96487.70;590977;240;64933;-67
2023/08/07 05:44:52;;;;;;;;;;;;;;;24.79;60.53;96494.16;591706;240;65290;-75
2023/08/07 05:47:19;;;;;;;;;;;;;;;24.81;58.68;96491.17;588812;240;62446;-74
2023/08/07 05:49:46;;;;;;;;;;;;;;;24.83;60.31;96493.53;585439;242;64905;-73
2023/08/07 05:52:15;;;;;;;;;;;;;;;24.84;60.03;96501.30;586865;239;66674;-69
2023/08/07 05:54:43;;;;;;;;;;;;;;;24.84;60.17;96503.20;591087;239;64907;-69
2023/08/07 05:57:10;;;;;;;;;;;;;;;24.85;60.77;96500.19;591976;239;67109;-69
2023/08/07 05:59:40;;;;;;;;;;;;;;;24.85;60.65;96505.56;592030;239;64789;-69
2023/08/07 06:02:07;;;;;;;;;;;;;;;24.86;60.61;96506.38;591976;239;65759;-68
2023/08/07 06:04:35;;;;;;;;;;;;;;;24.84;59.56;96498.62;592003;239;66868;-68
2023/08/07 06:07:02;;;;;;;;;;;;;;;24.86;60.75;96493.73;591991;239;66917;-68
2023/08/07 06:09:29;;;;;;;;;;;;;;;24.86;60.83;96496.42;591945;239;63441;-69
2023/08/07 06:11:57;;;;;;;;;;;;;;;24.85;61.02;96481.38;591970;239;67156;-74
2023/08/07 06:14:25;;;;;;;;;;;;;;;24.85;60.63;96489.44;591985;239;66870;-73
2023/08/07 06:16:53;;;;;;;;;;;;;;;24.86;60.65;96485.67;591942;239;62586;-74
2023/08/07 06:19:22;;;;;;;;;;;;;;;24.85;61.36;96473.31;591987;239;64871;-74
2023/08/07 06:21:49;;;;;;;;;;;;;;;24.85;61.63;96473.31;592001;239;67556;-74
2023/08/07 06:24:17;;;;;;;;;;;;;;;24.84;61.27;96471.73;591935;239;64611;-73
2023/08/07 06:26:44;;;;;;;;;;;;;;;24.85;60.72;96472.53;592002;239;67104;-66
2023/08/07 06:29:12;;;;;;;;;;;;;;;24.83;60.77;96467.48;591978;239;67068;-67
2023/08/07 06:31:39;;;;;;;;;;;;;;;24.82;60.64;96460.50;591961;239;64775;-68
2023/08/07 06:34:07;;;;;;;;;;;;;;;24.83;60.65;96459.41;591996;239;67277;-75
2023/08/07 06:36:34;;;;;;;;;;;;;;;24.83;60.71;96454.05;592058;239;67124;-74
2023/08/07 06:39:03;;;;;;;;;;;;;;;24.83;60.76;96451.35;591894;239;64662;-74
2023/08/07 06:41:31;;;;;;;;;;;;;;;24.83;60.98;96445.16;591914;239;67067;-71
2023/08/07 06:43:58;;;;;;;;;;;;;;;24.85;60.65;96461.78;591953;239;66960;-71
2023/08/07 06:46:27;;;;;;;;;;;;;;;24.84;61.11;96454.83;591932;239;64469;-73
2023/08/07 06:48:55;;;;;;;;;;;;;;;24.84;60.86;96460.99;592013;239;64887;-75
2023/08/07 06:51:22;;;;;;;;;;;;;;;24.84;60.46;96458.30;591994;239;64618;-73
2023/08/07 06:53:50;;;;;;;;;;;;;;;24.84;60.91;96460.99;591909;239;62511;-73
2023/08/07 06:56:17;;;;;;;;;;;;;;;24.85;60.98;96462.56;591954;239;67120;-64
2023/08/07 06:58:45;;;;;;;;;;;;;;;24.86;61.38;96474.13;591891;239;67074;-72
2023/08/07 07:01:12;;;;;;;;;;;;;;;24.85;60.89;96475.22;591869;239;64646;-67
2023/08/07 07:03:40;;;;;;;;;;;;;;;24.84;61.08;96474.43;591874;239;64728;-74
2023/08/07 07:06:08;;;;;;;;;;;;;;;24.85;61.22;96481.38;591904;239;66889;-76
2023/08/07 07:08:35;;;;;;;;;;;;;;;24.85;60.80;96475.22;594620;238;64582;-75
2023/08/07 07:11:04;;;;;;;;;;;;;;;24.84;60.73;96482.48;596615;238;65123;-75
2023/08/07 07:13:32;;;;;;;;;;;;;;;24.84;60.79;96482.48;596581;238;67001;-77
2023/08/07 07:15:59;;;;;;;;;;;;;;;24.86;60.72;96490.26;595475;238;65601;-75
2023/08/07 07:18:27;;;;;;;;;;;;;;;24.85;60.99;96492.12;592528;238;64379;-77
2023/08/07 07:20:58;;;;;;;;;;;;;;;24.85;61.05;96497.50;592317;238;65623;-82
2023/08/07 07:23:26;;;;;;;;;;;;;;;24.85;61.05;96494.81;596477;238;64654;-80
2023/08/07 07:25:53;;;;;;;;;;;;;;;24.86;61.19;96496.42;596589;238;65138;-74
2023/08/07 07:28:21;;;;;;;;;;;;;;;24.86;61.21;96501.80;596513;238;64725;-73
2023/08/07 07:30:50;;;;;;;;;;;;;;;24.86;61.20;96506.38;596538;238;62476;-77
2023/08/07 07:33:17;;;;;;;;;;;;;;;24.87;61.46;96507.95;596578;238;67096;-63
2023/08/07 07:35:45;;;;;;;;;;;;;;;24.86;60.79;96512.55;596492;238;67130;-77
2023/08/07 07:38:12;;;;;;;;;;;;;;;24.86;61.12;96517.13;596591;238;62494;-67
2023/08/07 07:40:40;;;;;;;;;;;;;;;24.85;60.85;96510.94;596611;238;64533;-76
2023/08/07 07:43:07;;;;;;;;;;;;;;;24.85;60.66;96516.31;596505;238;66696;-75
2023/08/07 07:45:35;;;;;;;;;;;;;;;24.85;60.59;96524.38;596529;238;62571;-72
2023/08/07 07:48:03;;;;;;;;;;;;;;;24.85;60.89;96526.28;596339;238;66803;-72
2023/08/07 07:50:31;;;;;;;;;;;;;;;24.85;60.34;96527.06;596392;238;67535;-72
2023/08/07 07:52:58;;;;;;;;;;;;;;;24.85;60.87;96528.97;596585;238;64676;-73
2023/08/07 07:55:26;;;;;;;;;;;;;;;24.85;60.91;96527.06;596454;238;66936;-73
2023/08/07 07:57:55;;;;;;;;;;;;;;;24.84;60.88;96525.49;596417;238;64622;-69
2023/08/07 08:00:26;;;;;;;;;;;;;;;24.84;61.45;96517.42;596604;238;64797;-76
2023/08/07 08:02:51;;;;;;;;;;;;;;;24.84;61.20;96514.74;596434;238;67007;-77
2023/08/07 08:05:19;;;;;;;;;;;;;;;24.84;60.95;96524.70;596579;238;64588;-74
2023/08/07 08:07:46;;;;;;;;;;;;;;;24.84;60.95;96525.49;595286;238;62450;-73
2023/08/07 08:10:14;;;;;;;;;;;;;;;24.83;55.50;96520.41;591934;239;64929;-75
2023/08/07 08:12:41;;;;;;;;;;;;;;;24.85;59.92;96519.00;591888;239;65189;-71
2023/08/07 08:15:09;;;;;;;;;;;;;;;24.86;60.69;96519.82;591892;239;62480;-73
2023/08/07 08:17:37;;;;;;;;;;;;;;;24.85;60.83;96516.31;591905;239;64866;-72
2023/08/07 08:20:04;;;;;;;;;;;;;;;24.85;60.40;96521.69;591920;239;64797;-72
2023/08/07 08:22:33;;;;;;;;;;;;;;;24.85;60.55;96523.59;591941;239;62375;-72
2023/08/07 08:25:00;;;;;;;;;;;;;;;24.85;60.58;96532.44;591892;239;67110;-72
2023/08/07 08:27:28;;;;;;;;;;;;;;;24.85;60.80;96528.97;591949;239;66879;-71
2023/08/07 08:29:55;;;;;;;;;;;;;;;24.85;60.57;96527.06;591910;239;64534;-72
2023/08/07 08:32:23;;;;;;;;;;;;;;;24.86;61.06;96522.52;588733;239;66806;-74
2023/08/07 08:34:50;;;;;;;;;;;;;;;24.85;60.83;96531.66;588687;239;66911;-80
2023/08/07 08:37:18;;;;;;;;;;;;;;;24.85;60.63;96523.59;588637;239;64682;-76
2023/08/07 08:39:45;;;;;;;;;;;;;;;24.86;60.44;96527.89;591872;239;67315;-80
2023/08/07 08:42:13;;;;;;;;;;;;;;;24.85;60.59;96529.75;589905;239;66897;-75
2023/08/07 08:44:41;;;;;;;;;;;;;;;24.85;60.71;96527.06;588349;239;65172;-74
2023/08/07 08:47:09;;;;;;;;;;;;;;;24.86;60.73;96519.82;586390;239;67131;-70
2023/08/07 08:49:38;;;;;;;;;;;;;;;24.86;60.81;96528.67;587168;239;66715;-73
2023/08/07 08:52:07;;;;;;;;;;;;;;;24.86;60.68;96522.52;584730;242;64661;-74
2023/08/07 08:54:35;;;;;;;;;;;;;;;24.86;60.89;96522.52;584781;242;67330;-73
2023/08/07 08:57:02;;;;;;;;;;;;;;;24.85;61.23;96519.00;584820;242;67046;-74
2023/08/07 08:59:31;;;;;;;;;;;;;;;24.86;61.33;96519.82;584845;242;62462;-75
2023/08/07 09:01:59;;;;;;;;;;;;;;;24.85;61.36;96519.00;584714;242;67307;-68
2023/08/07 09:04:26;;;;;;;;;;;;;;;24.85;61.05;96520.91;584849;242;66914;-72
2023/08/07 09:06:54;;;;;;;;;;;;;;;24.85;60.91;96512.84;584793;242;64729;-75
2023/08/07 09:09:22;;;;;;;;;;;;;;;24.85;61.10;96518.22;586633;241;67013;-73
2023/08/07 09:11:51;;;;;;;;;;;;;;;24.84;61.19;96509.37;586904;241;67656;-74
2023/08/07 09:14:19;;;;;;;;;;;;;;;24.86;61.27;96511.76;586892;241;62172;-75
2023/08/07 09:16:49;;;;;;;;;;;;;;;24.86;61.35;96509.07;586815;241;65044;-76
2023/08/07 09:19:16;;;;;;;;;;;;;;;24.86;61.17;96511.76;586925;241;66811;-73
2023/08/07 09:21:44;;;;;;;;;;;;;;;24.85;61.38;96510.94;586833;241;64630;-74
2023/08/07 09:24:11;;;;;;;;;;;;;;;24.85;61.48;96505.56;586865;241;64770;-73
2023/08/07 09:26:40;;;;;;;;;;;;;;;24.86;61.37;96509.86;586868;241;67228;-74
2023/08/07 09:29:09;;;;;;;;;;;;;;;24.86;61.71;96506.38;586888;241;65815;-74
2023/08/07 09:31:37;;;;;;;;;;;;;;;24.85;61.52;96510.94;586869;241;64937;-75
2023/08/07 09:34:05;;;;;;;;;;;;;;;24.87;61.41;96505.27;587344;239;66887;-75
2023/08/07 09:36:34;;;;;;;;;;;;;;;24.87;61.44;96510.64;591488;239;62811;-76
2023/08/07 09:39:02;;;;;;;;;;;;;;;24.86;61.34;96517.92;591286;239;66998;-74
2023/08/07 09:41:30;;;;;;;;;;;;;;;24.86;61.54;96509.86;591226;239;66923;-76
2023/08/07 09:43:58;;;;;;;;;;;;;;;24.86;60.11;96512.55;591288;239;64611;-75
2023/08/07 09:46:28;;;;;;;;;;;;;;;24.88;60.78;96504.98;592012;239;66785;-75
2023/08/07 09:48:57;;;;;;;;;;;;;;;24.87;61.24;96503.37;590009;239;66953;-74
2023/08/07 09:51:25;;;;;;;;;;;;;;;24.87;61.21;96508.75;590172;239;67391;-75
2023/08/07 09:53:52;;;;;;;;;;;;;;;24.87;61.34;96513.34;589858;239;65035;-75
2023/08/07 09:56:20;;;;;;;;;;;;;;;24.86;61.29;96507.17;594088;239;64884;-76
2023/08/07 09:58:48;;;;;;;;;;;;;;;24.86;61.14;96511.76;593996;239;64601;-75
2023/08/07 10:01:16;;;;;;;;;;;;;;;24.86;61.36;96512.55;594051;239;67361;-75
2023/08/07 10:03:44;;;;;;;;;;;;;;;24.85;61.50;96510.94;594069;239;66902;-75
2023/08/07 10:06:12;;;;;;;;;;;;;;;24.85;61.23;96505.56;593957;239;62434;-73
2023/08/07 10:08:42;;;;;;;;;;;;;;;24.85;60.82;96507.47;589639;239;64864;-78
2023/08/07 10:11:10;;;;;;;;;;;;;;;24.85;60.93;96502.87;588061;239;66889;-77
2023/08/07 10:13:38;;;;;;;;;;;;;;;24.86;61.22;96503.70;589329;239;64462;-69
2023/08/07 10:16:06;;;;;;;;;;;;;;;24.86;61.29;96514.45;589580;239;64939;-76
2023/08/07 10:18:35;;;;;;;;;;;;;;;24.85;61.54;96504.78;591777;239;67116;-74
2023/08/07 10:21:03;;;;;;;;;;;;;;;24.85;61.29;96504.78;591154;239;64547;-74
2023/08/07 10:23:32;;;;;;;;;;;;;;;24.84;61.12;96503.98;592002;239;64868;-74
2023/08/07 10:26:00;;;;;;;;;;;;;;;24.85;61.17;96499.41;591892;239;64992;-78
2023/08/07 10:28:28;;;;;;;;;;;;;;;24.84;61.13;96498.62;591835;239;64596;-68
2023/08/07 10:30:56;;;;;;;;;;;;;;;24.84;60.96;96498.62;589019;239;67087;-74
2023/08/07 10:33:24;;;;;;;;;;;;;;;24.86;60.91;96501.80;590340;239;69530;-73
2023/08/07 10:35:53;;;;;;;;;;;;;;;24.86;60.66;96495.63;591914;239;64830;-63
2023/08/07 10:38:21;;;;;;;;;;;;;;;24.85;60.98;96496.72;591755;239;67188;-72
2023/08/07 10:41:05;;;;;;;;;;;;;;;24.86;60.81;96492.95;591907;239;65043;-73
2023/08/07 10:43:34;;;;;;;;;;;;;;;24.84;61.04;96487.08;592015;239;64556;-73
2023/08/07 10:46:03;;;;;;;;;;;;;;;24.81;61.80;96491.96;591889;239;66978;-75
2023/08/07 10:48:32;;;;;;;;;;;;;;;24.83;61.61;96486.29;591730;239;67588;-74
2023/08/07 10:51:02;;;;;;;;;;;;;;;24.83;61.42;96486.29;591778;239;64628;-73
2023/08/07 10:53:30;;;;;;;;;;;;;;;24.84;61.20;96495.14;587379;239;67117;-75
2023/08/07 10:55:58;;;;;;;;;;;;;;;24.83;61.49;96491.66;587944;239;64496;-73
2023/08/07 10:58:26;;;;;;;;;;;;;;;24.84;61.14;96487.08;587917;239;62481;-71
2023/08/07 11:01:12;;;;;;;;;;;;;;;24.84;61.03;96493.24;587156;239;65521;-69
2023/08/07 11:03:41;;;;;;;;;;;;;;;24.83;61.16;96493.53;580834;239;70199;-70
2023/08/07 11:06:10;;;;;;;;;;;;;;;24.83;61.10;96496.22;588127;239;62560;-70
2023/08/07 11:08:38;;;;;;;;;;;;;;;24.83;58.41;96491.66;589317;239;67343;-71
2023/08/07 11:11:06;;;;;;;;;;;;;;;24.86;60.01;96482.20;585383;239;64702;-72
2023/08/07 11:13:34;;;;;;;;;;;;;;;24.87;60.43;96479.19;584864;242;62739;-68
2023/08/07 11:16:03;;;;;;;;;;;;;;;24.87;60.86;96476.49;584785;242;64606;-70
2023/08/07 11:18:31;;;;;;;;;;;;;;;24.89;60.67;96474.30;584818;242;67075;-68
2023/08/07 11:21:01;;;;;;;;;;;;;;;24.89;60.46;96471.61;584815;242;65889;-68
2023/08/07 11:23:28;;;;;;;;;;;;;;;24.90;60.85;96467.81;584799;242;67280;-69
2023/08/07 11:25:56;;;;;;;;;;;;;;;24.91;60.54;96468.59;584823;242;67026;-68
2023/08/07 11:28:24;;;;;;;;;;;;;;;24.91;60.26;96468.59;584792;242;64577;-69
2023/08/07 11:30:52;;;;;;;;;;;;;;;24.92;60.14;96470.20;584778;242;67159;-68
2023/08/07 11:33:20;;;;;;;;;;;;;;;24.92;60.29;96470.98;584817;242;66860;-67
2023/08/07 11:35:48;;;;;;;;;;;;;;;24.92;59.92;96462.92;584826;242;64654;-71
2023/08/07 11:38:18;;;;;;;;;;;;;;;24.93;59.98;96471.78;584797;242;65142;-67
2023/08/07 11:40:45;;;;;;;;;;;;;;;24.92;59.69;96470.20;584048;242;65485;-68
2023/08/07 11:43:12;;;;;;;;;;;;;;;24.93;59.84;96471.78;584847;242;64719;-68
2023/08/07 11:45:40;;;;;;;;;;;;;;;24.94;59.98;96481.45;584785;242;67233;-68
2023/08/07 11:48:07;;;;;;;;;;;;;;;24.93;59.76;96467.19;584847;242;66567;-68
2023/08/07 11:50:35;;;;;;;;;;;;;;;24.95;59.80;96464.20;584922;242;64764;-68
2023/08/07 11:53:02;;;;;;;;;;;;;;;24.93;59.60;96464.50;584868;242;64639;-67
2023/08/07 11:55:30;;;;;;;;;;;;;;;24.94;59.38;96463.41;584838;242;64916;-68
2023/08/07 11:57:57;;;;;;;;;;;;;;;24.95;59.78;96477.64;584828;242;62734;-72
2023/08/07 12:00:29;;;;;;;;;;;;;;;24.93;60.29;96469.09;584788;242;63807;-68
2023/08/07 12:02:56;;;;;;;;;;;;;;;24.91;60.57;96465.91;584860;242;66765;-67
2023/08/07 12:05:24;;;;;;;;;;;;;;;24.90;60.20;96462.44;584866;242;64599;-68
2023/08/07 12:07:52;;;;;;;;;;;;;;;24.89;60.27;96468.92;584724;242;66803;-69
2023/08/07 12:10:19;;;;;;;;;;;;;;;24.89;60.04;96463.55;584817;242;67058;-72
2023/08/07 12:12:47;;;;;;;;;;;;;;;24.88;60.02;96461.97;584760;242;64595;-70
2023/08/07 12:15:16;;;;;;;;;;;;;;;24.88;60.39;96461.97;584776;242;67058;-67
2023/08/07 12:17:43;;;;;;;;;;;;;;;24.87;60.81;96465.75;584887;242;67059;-64
2023/08/07 12:20:11;;;;;;;;;;;;;;;24.86;60.93;96456.11;584758;242;64550;-68
2023/08/07 12:22:39;;;;;;;;;;;;;;;24.85;60.85;96449.13;584825;242;67475;-71
2023/08/07 12:25:06;;;;;;;;;;;;;;;24.86;60.33;96458.80;584812;242;66987;-69
2023/08/07 12:27:34;;;;;;;;;;;;;;;24.86;60.28;96447.26;584771;242;64668;-69
2023/08/07 12:30:01;;;;;;;;;;;;;;;24.86;60.32;96450.73;584856;242;64585;-67
2023/08/07 12:32:29;;;;;;;;;;;;;;;24.86;60.73;96444.57;584851;242;67000;-68
2023/08/07 12:34:56;;;;;;;;;;;;;;;24.85;60.85;96454.50;584798;242;64840;-69
2023/08/07 12:37:24;;;;;;;;;;;;;;;24.85;60.86;96446.44;586845;239;67118;-68
2023/08/07 12:39:51;;;;;;;;;;;;;;;24.85;60.66;96456.41;590643;239;67221;-67
2023/08/07 12:42:18;;;;;;;;;;;;;;;24.84;60.59;96455.61;586117;239;62749;-67
2023/08/07 12:44:46;;;;;;;;;;;;;;;24.84;60.63;96455.61;590842;239;65178;-67
2023/08/07 12:47:13;;;;;;;;;;;;;;;24.83;60.76;96459.41;591956;239;64796;-67
2023/08/07 12:49:41;;;;;;;;;;;;;;;24.84;60.62;96458.30;591891;239;64766;-67
2023/08/07 12:52:08;;;;;;;;;;;;;;;24.84;60.48;96454.83;591974;239;64554;-68